sensor_id;sensor_type;location;lat;lon;timestamp;pressure;altitude;pressure_sealevel;temperature;humidity
21828;BME280;11076;47.942;11.804;2023-04-28T00:04:30;94320.72;;;6.06;100.00
21828;BME280;11076;47.942;11.804;2023-04-28T00:09:32;94321.69;;;5.98;100.00
21828;BME280;11076;47.942;11.804;2023-04-28T00:14:34;94315.75;;;5.96;100.00
21828;BME280;11076;47.942;11.804;2023-04-28T00:19:37;94315.09;;;5.94;100.00
21828;BME280;11076;47.942;11.804;2023-04-28T00:24:39;94309.06;;;6.00;100.00
21828;BME280;11076;47.942;11.804;2023-04-28T00:29:43;94305.63;;;6.06;100.00
21828;BME280;11076;47.942;11.804;2023-04-28T00:34:45;94310.56;;;6.09;100.00
21828;BME280;11076;47.942;11.804;2023-04-28T00:39:47;94303.22;;;6.11;100.00
21828;BME280;11076;47.942;11.804;2023-04-28T00:44:50;94289.69;;;6.06;100.00
21828;BME280;11076;47.942;11.804;2023-04-28T00:49:52;94295.41;;;6.03;100.00
21828;BME280;11076;47.942;11.804;2023-04-28T00:54:55;94283.72;;;5.97;100.00
21828;BME280;11076;47.942;11.804;2023-04-28T00:59:58;94282.44;;;5.93;100.00
21828;BME280;11076;47.942;11.804;2023-04-28T01:05:02;94282.28;;;5.95;100.00
21828;BME280;11076;47.942;11.804;2023-04-28T01:10:05;94291.72;;;6.04;100.00
21828;BME280;11076;47.942;11.804;2023-04-28T01:15:14;94279.97;;;6.13;100.00
21828;BME280;11076;47.942;11.804;2023-04-28T01:20:18;94272.72;;;6.29;100.00
21828;BME280;11076;47.942;11.804;2023-04-28T01:25:20;94266.63;;;6.35;100.00
21828;BME280;11076;47.942;11.804;2023-04-28T01:30:22;94268.25;;;6.36;100.00
21828;BME280;11076;47.942;11.804;2023-04-28T01:35:26;94256.47;;;6.45;100.00
21828;BME280;11076;47.942;11.804;2023-04-28T01:40:29;94258.97;;;6.60;100.00
21828;BME280;11076;47.942;11.804;2023-04-28T01:45:31;94242.63;;;6.56;100.00
21828;BME280;11076;47.942;11.804;2023-04-28T01:50:34;94249.19;;;6.61;100.00
21828;BME280;11076;47.942;11.804;2023-04-28T01:55:38;94245.94;;;6.72;100.00
21828;BME280;11076;47.942;11.804;2023-04-28T02:00:42;94251.69;;;6.82;100.00
21828;BME280;11076;47.942;11.804;2023-04-28T02:05:45;94259.72;;;6.95;100.00
21828;BME280;11076;47.942;11.804;2023-04-28T02:10:47;94257.13;;;7.09;100.00
21828;BME280;11076;47.942;11.804;2023-04-28T02:15:50;94267.13;;;7.13;100.00
21828;BME280;11076;47.942;11.804;2023-04-28T02:20:54;94232.56;;;7.07;100.00
21828;BME280;11076;47.942;11.804;2023-04-28T02:26:00;94238.28;;;7.04;100.00
21828;BME280;11076;47.942;11.804;2023-04-28T02:31:07;94249.38;;;7.21;100.00
21828;BME280;11076;47.942;11.804;2023-04-28T02:36:10;94252.03;;;7.27;100.00
21828;BME280;11076;47.942;11.804;2023-04-28T02:41:14;94256.13;;;7.30;100.00
21828;BME280;11076;47.942;11.804;2023-04-28T02:46:17;94251.03;;;7.28;100.00
21828;BME280;11076;47.942;11.804;2023-04-28T02:51:19;94252.88;;;7.48;100.00
21828;BME280;11076;47.942;11.804;2023-04-28T02:56:21;94251.28;;;7.60;100.00
21828;BME280;11076;47.942;11.804;2023-04-28T03:01:24;94240.41;;;7.62;100.00
21828;BME280;11076;47.942;11.804;2023-04-28T03:06:27;94220.16;;;7.67;100.00
21828;BME280;11076;47.942;11.804;2023-04-28T03:11:29;94217.09;;;7.57;100.00
21828;BME280;11076;47.942;11.804;2023-04-28T03:16:32;94233.88;;;7.51;100.00
21828;BME280;11076;47.942;11.804;2023-04-28T03:21:34;94224.47;;;7.48;100.00
21828;BME280;11076;47.942;11.804;2023-04-28T03:26:36;94218.31;;;7.48;100.00
21828;BME280;11076;47.942;11.804;2023-04-28T03:31:39;94217.09;;;7.57;100.00
21828;BME280;11076;47.942;11.804;2023-04-28T03:36:41;94213.81;;;7.55;100.00
21828;BME280;11076;47.942;11.804;2023-04-28T03:41:52;94201.53;;;7.41;100.00
21828;BME280;11076;47.942;11.804;2023-04-28T03:47:24;94213.81;;;7.35;100.00
21828;BME280;11076;47.942;11.804;2023-04-28T03:52:26;94220.56;;;7.44;100.00
21828;BME280;11076;47.942;11.804;2023-04-28T03:57:29;94211.34;;;7.47;100.00
21828;BME280;11076;47.942;11.804;2023-04-28T04:02:32;94211.13;;;7.42;100.00
21828;BME280;11076;47.942;11.804;2023-04-28T04:07:34;94205.00;;;7.48;100.00
21828;BME280;11076;47.942;11.804;2023-04-28T04:12:37;94212.16;;;7.54;100.00
21828;BME280;11076;47.942;11.804;2023-04-28T04:17:39;94218.75;;;7.58;100.00
21828;BME280;11076;47.942;11.804;2023-04-28T04:22:42;94215.66;;;7.68;100.00
21828;BME280;11076;47.942;11.804;2023-04-28T04:27:44;94200.31;;;7.63;100.00
21828;BME280;11076;47.942;11.804;2023-04-28T04:32:46;94202.97;;;7.63;100.00
21828;BME280;11076;47.942;11.804;2023-04-28T04:37:50;94207.47;;;7.69;100.00
21828;BME280;11076;47.942;11.804;2023-04-28T04:42:52;94198.66;;;7.75;100.00
21828;BME280;11076;47.942;11.804;2023-04-28T04:47:55;94194.97;;;7.83;100.00
21828;BME280;11076;47.942;11.804;2023-04-28T04:52:57;94200.69;;;8.07;100.00
21828;BME280;11076;47.942;11.804;2023-04-28T04:58:00;94202.28;;;8.28;100.00
21828;BME280;11076;47.942;11.804;2023-04-28T05:03:28;94206.34;;;8.37;100.00
21828;BME280;11076;47.942;11.804;2023-04-28T05:08:33;94213.31;;;8.38;100.00
21828;BME280;11076;47.942;11.804;2023-04-28T05:13:36;94208.63;;;8.27;100.00
21828;BME280;11076;47.942;11.804;2023-04-28T05:18:39;94205.94;;;8.47;100.00
21828;BME280;11076;47.942;11.804;2023-04-28T05:23:41;94212.44;;;8.64;100.00
21828;BME280;11076;47.942;11.804;2023-04-28T05:28:44;94209.16;;;8.62;100.00
21828;BME280;11076;47.942;11.804;2023-04-28T05:33:47;94212.41;;;8.71;100.00
21828;BME280;11076;47.942;11.804;2023-04-28T05:38:49;94216.88;;;8.77;100.00
21828;BME280;11076;47.942;11.804;2023-04-28T05:43:52;94216.47;;;8.80;100.00
21828;BME280;11076;47.942;11.804;2023-04-28T05:48:55;94230.81;;;8.79;100.00
21828;BME280;11076;47.942;11.804;2023-04-28T05:53:57;94240.72;;;8.59;100.00
21828;BME280;11076;47.942;11.804;2023-04-28T05:59:02;94242.19;;;8.54;100.00
21828;BME280;11076;47.942;11.804;2023-04-28T06:04:05;94239.47;;;8.68;100.00
21828;BME280;11076;47.942;11.804;2023-04-28T06:09:08;94226.88;;;8.88;100.00
21828;BME280;11076;47.942;11.804;2023-04-28T06:14:11;94236.59;;;9.14;100.00
21828;BME280;11076;47.942;11.804;2023-04-28T06:19:13;94251.59;;;9.15;100.00
21828;BME280;11076;47.942;11.804;2023-04-28T06:24:17;94261.41;;;9.22;100.00
21828;BME280;11076;47.942;11.804;2023-04-28T06:29:20;94256.41;;;9.32;100.00
21828;BME280;11076;47.942;11.804;2023-04-28T06:34:25;94255.88;;;9.55;100.00
21828;BME280;11076;47.942;11.804;2023-04-28T06:39:30;94254.13;;;9.67;100.00
21828;BME280;11076;47.942;11.804;2023-04-28T06:44:32;94247.28;;;10.03;100.00
21828;BME280;11076;47.942;11.804;2023-04-28T06:49:36;94237.00;;;10.50;100.00
21828;BME280;11076;47.942;11.804;2023-04-28T06:54:38;94233.28;;;10.70;99.35
21828;BME280;11076;47.942;11.804;2023-04-28T06:59:42;94227.13;;;10.69;99.69
21828;BME280;11076;47.942;11.804;2023-04-28T07:04:47;94231.88;;;10.67;100.00
21828;BME280;11076;47.942;11.804;2023-04-28T07:09:50;94214.03;;;10.80;100.00
21828;BME280;11076;47.942;11.804;2023-04-28T07:14:54;94212.28;;;11.04;100.00
21828;BME280;11076;47.942;11.804;2023-04-28T07:19:57;94208.81;;;11.33;100.00
21828;BME280;11076;47.942;11.804;2023-04-28T07:25:00;94208.22;;;11.73;99.97
21828;BME280;11076;47.942;11.804;2023-04-28T07:30:02;94195.69;;;12.09;98.83
21828;BME280;11076;47.942;11.804;2023-04-28T07:35:10;94208.28;;;11.97;98.85
21828;BME280;11076;47.942;11.804;2023-04-28T07:40:12;94201.41;;;12.01;98.89
21828;BME280;11076;47.942;11.804;2023-04-28T07:45:14;94197.78;;;12.07;99.95
21828;BME280;11076;47.942;11.804;2023-04-28T07:50:17;94183.13;;;11.98;99.66
21828;BME280;11076;47.942;11.804;2023-04-28T07:55:20;94185.53;;;11.88;99.27
21828;BME280;11076;47.942;11.804;2023-04-28T08:00:22;94181.13;;;11.93;99.24
21828;BME280;11076;47.942;11.804;2023-04-28T08:05:25;94188.72;;;12.08;98.18
21828;BME280;11076;47.942;11.804;2023-04-28T08:10:27;94196.88;;;12.13;97.47
21828;BME280;11076;47.942;11.804;2023-04-28T08:15:30;94193.28;;;12.08;96.57
21828;BME280;11076;47.942;11.804;2023-04-28T08:20:32;94192.78;;;12.11;97.15
21828;BME280;11076;47.942;11.804;2023-04-28T08:25:34;94195.25;;;12.12;96.41
21828;BME280;11076;47.942;11.804;2023-04-28T08:30:37;94203.66;;;12.28;97.12
21828;BME280;11076;47.942;11.804;2023-04-28T08:35:40;94188.81;;;12.37;97.33
21828;BME280;11076;47.942;11.804;2023-04-28T08:40:42;94193.59;;;12.35;97.40
21828;BME280;11076;47.942;11.804;2023-04-28T08:45:45;94188.72;;;12.32;98.13
21828;BME280;11076;47.942;11.804;2023-04-28T08:50:49;94180.69;;;12.20;99.33
21828;BME280;11076;47.942;11.804;2023-04-28T08:55:56;94188.16;;;12.30;100.00
21828;BME280;11076;47.942;11.804;2023-04-28T09:00:59;94179.75;;;12.26;100.00
21828;BME280;11076;47.942;11.804;2023-04-28T09:06:03;94174.97;;;12.17;100.00
21828;BME280;11076;47.942;11.804;2023-04-28T09:16:09;94172.16;;;12.35;100.00
21828;BME280;11076;47.942;11.804;2023-04-28T09:21:11;94174.97;;;12.40;100.00
21828;BME280;11076;47.942;11.804;2023-04-28T09:26:14;94174.75;;;12.18;100.00
21828;BME280;11076;47.942;11.804;2023-04-28T09:31:24;94167.75;;;12.05;100.00
21828;BME280;11076;47.942;11.804;2023-04-28T09:36:27;94167.72;;;11.82;100.00
21828;BME280;11076;47.942;11.804;2023-04-28T09:41:38;94170.28;;;11.77;100.00
21828;BME280;11076;47.942;11.804;2023-04-28T09:46:45;94166.88;;;11.69;100.00
21828;BME280;11076;47.942;11.804;2023-04-28T09:51:47;94166.53;;;11.54;100.00
21828;BME280;11076;47.942;11.804;2023-04-28T09:56:50;94174.22;;;11.62;100.00
21828;BME280;11076;47.942;11.804;2023-04-28T10:01:52;94165.94;;;11.64;100.00
21828;BME280;11076;47.942;11.804;2023-04-28T10:06:55;94156.41;;;11.80;100.00
21828;BME280;11076;47.942;11.804;2023-04-28T10:11:58;94152.03;;;12.09;100.00
21828;BME280;11076;47.942;11.804;2023-04-28T10:17:02;94148.38;;;12.27;100.00
21828;BME280;11076;47.942;11.804;2023-04-28T10:22:16;94137.00;;;12.20;100.00
21828;BME280;11076;47.942;11.804;2023-04-28T10:27:29;94138.25;;;12.41;100.00
21828;BME280;11076;47.942;11.804;2023-04-28T10:32:32;94126.44;;;12.53;100.00
21828;BME280;11076;47.942;11.804;2023-04-28T10:43:14;94123.06;;;12.46;100.00
21828;BME280;11076;47.942;11.804;2023-04-28T10:58:48;94132.56;;;12.78;100.00
21828;BME280;11076;47.942;11.804;2023-04-28T11:03:57;94129.88;;;13.06;100.00
21828;BME280;11076;47.942;11.804;2023-04-28T11:19:23;94115.31;;;13.02;100.00
21828;BME280;11076;47.942;11.804;2023-04-28T11:24:27;94119.94;;;12.78;100.00
21828;BME280;11076;47.942;11.804;2023-04-28T11:29:37;94131.66;;;12.60;100.00
21828;BME280;11076;47.942;11.804;2023-04-28T11:34:39;94126.31;;;12.60;100.00
21828;BME280;11076;47.942;11.804;2023-04-28T11:39:42;94123.00;;;12.99;100.00
21828;BME280;11076;47.942;11.804;2023-04-28T11:44:51;94121.34;;;13.09;100.00
21828;BME280;11076;47.942;11.804;2023-04-28T11:49:54;94120.63;;;12.85;100.00
21828;BME280;11076;47.942;11.804;2023-04-28T11:54:58;94107.75;;;12.99;100.00
21828;BME280;11076;47.942;11.804;2023-04-28T12:00:13;94100.03;;;13.31;100.00
21828;BME280;11076;47.942;11.804;2023-04-28T12:05:16;94103.16;;;14.13;97.14
21828;BME280;11076;47.942;11.804;2023-04-28T12:10:18;94100.59;;;14.84;94.13
21828;BME280;11076;47.942;11.804;2023-04-28T12:15:21;94100.84;;;14.61;92.51
21828;BME280;11076;47.942;11.804;2023-04-28T12:20:37;94119.56;;;14.56;94.06
21828;BME280;11076;47.942;11.804;2023-04-28T12:25:44;94122.22;;;13.95;94.55
21828;BME280;11076;47.942;11.804;2023-04-28T12:30:46;94123.09;;;14.17;94.14
21828;BME280;11076;47.942;11.804;2023-04-28T12:35:49;94125.09;;;14.05;93.85
21828;BME280;11076;47.942;11.804;2023-04-28T12:40:51;94129.25;;;13.79;95.53
21828;BME280;11076;47.942;11.804;2023-04-28T12:45:54;94126.06;;;13.82;95.38
21828;BME280;11076;47.942;11.804;2023-04-28T12:51:02;94128.84;;;13.87;95.39
21828;BME280;11076;47.942;11.804;2023-04-28T12:56:04;94140.31;;;13.65;96.74
21828;BME280;11076;47.942;11.804;2023-04-28T13:01:07;94137.63;;;13.65;97.12
21828;BME280;11076;47.942;11.804;2023-04-28T13:06:09;94136.31;;;13.68;97.46
21828;BME280;11076;47.942;11.804;2023-04-28T13:11:12;94125.38;;;13.41;97.70
21828;BME280;11076;47.942;11.804;2023-04-28T13:16:20;94137.09;;;13.35;99.44
21828;BME280;11076;47.942;11.804;2023-04-28T13:21:23;94132.59;;;13.23;99.99
21828;BME280;11076;47.942;11.804;2023-04-28T13:26:27;94129.75;;;13.13;100.00
21828;BME280;11076;47.942;11.804;2023-04-28T13:31:31;94123.47;;;13.24;100.00
21828;BME280;11076;47.942;11.804;2023-04-28T13:36:33;94110.28;;;13.68;99.35
21828;BME280;11076;47.942;11.804;2023-04-28T13:41:36;94119.44;;;14.45;97.57
21828;BME280;11076;47.942;11.804;2023-04-28T13:46:39;94110.84;;;14.65;95.07
21828;BME280;11076;47.942;11.804;2023-04-28T13:51:41;94098.91;;;15.05;93.61
21828;BME280;11076;47.942;11.804;2023-04-28T13:56:43;94100.53;;;15.34;92.19
21828;BME280;11076;47.942;11.804;2023-04-28T14:01:46;94101.59;;;15.05;92.17
21828;BME280;11076;47.942;11.804;2023-04-28T14:06:48;94093.72;;;14.99;93.19
21828;BME280;11076;47.942;11.804;2023-04-28T14:11:51;94092.94;;;14.76;92.36
21828;BME280;11076;47.942;11.804;2023-04-28T14:16:53;94091.63;;;15.06;92.14
21828;BME280;11076;47.942;11.804;2023-04-28T14:21:56;94088.56;;;15.51;89.53
21828;BME280;11076;47.942;11.804;2023-04-28T14:26:58;94085.06;;;15.24;89.79
21828;BME280;11076;47.942;11.804;2023-04-28T14:32:01;94083.00;;;15.04;91.23
21828;BME280;11076;47.942;11.804;2023-04-28T14:37:03;94075.63;;;15.21;91.00
21828;BME280;11076;47.942;11.804;2023-04-28T14:42:05;94073.25;;;15.25;91.15
21828;BME280;11076;47.942;11.804;2023-04-28T14:47:08;94073.41;;;15.45;89.63
21828;BME280;11076;47.942;11.804;2023-04-28T14:52:10;94076.84;;;15.36;90.38
21828;BME280;11076;47.942;11.804;2023-04-28T14:57:13;94078.31;;;15.21;90.46
21828;BME280;11076;47.942;11.804;2023-04-28T15:02:16;94083.03;;;14.82;93.58
21828;BME280;11076;47.942;11.804;2023-04-28T15:07:19;94069.97;;;14.46;94.48
21828;BME280;11076;47.942;11.804;2023-04-28T15:12:22;94064.09;;;14.27;95.65
21828;BME280;11076;47.942;11.804;2023-04-28T15:17:24;94072.97;;;13.89;97.75
21828;BME280;11076;47.942;11.804;2023-04-28T15:22:27;94079.91;;;13.85;99.73
21828;BME280;11076;47.942;11.804;2023-04-28T15:27:29;94073.59;;;13.96;100.00
21828;BME280;11076;47.942;11.804;2023-04-28T15:32:31;94076.47;;;13.72;100.00
21828;BME280;11076;47.942;11.804;2023-04-28T15:37:38;94076.44;;;13.33;100.00
21828;BME280;11076;47.942;11.804;2023-04-28T15:42:42;94059.47;;;13.16;100.00
21828;BME280;11076;47.942;11.804;2023-04-28T15:47:50;94071.63;;;13.52;100.00
21828;BME280;11076;47.942;11.804;2023-04-28T15:52:52;94072.34;;;13.82;100.00
21828;BME280;11076;47.942;11.804;2023-04-28T15:57:55;94068.75;;;13.93;100.00
21828;BME280;11076;47.942;11.804;2023-04-28T16:02:57;94060.44;;;13.78;100.00
21828;BME280;11076;47.942;11.804;2023-04-28T16:08:02;94057.78;;;13.44;100.00
21828;BME280;11076;47.942;11.804;2023-04-28T16:13:04;94056.69;;;13.28;100.00
21828;BME280;11076;47.942;11.804;2023-04-28T16:18:12;94046.03;;;13.16;100.00
21828;BME280;11076;47.942;11.804;2023-04-28T16:23:14;94045.78;;;13.01;100.00
21828;BME280;11076;47.942;11.804;2023-04-28T16:28:17;94039.75;;;12.93;100.00
21828;BME280;11076;47.942;11.804;2023-04-28T16:33:19;94019.91;;;12.94;100.00
21828;BME280;11076;47.942;11.804;2023-04-28T16:38:21;94022.19;;;13.03;100.00
21828;BME280;11076;47.942;11.804;2023-04-28T16:43:24;94022.03;;;12.92;100.00
21828;BME280;11076;47.942;11.804;2023-04-28T16:48:27;94029.66;;;12.84;100.00
21828;BME280;11076;47.942;11.804;2023-04-28T16:53:29;94030.44;;;12.67;100.00
21828;BME280;11076;47.942;11.804;2023-04-28T16:58:31;94041.13;;;12.50;100.00
21828;BME280;11076;47.942;11.804;2023-04-28T17:03:34;94036.28;;;12.36;100.00
21828;BME280;11076;47.942;11.804;2023-04-28T17:08:42;94021.63;;;12.26;100.00
21828;BME280;11076;47.942;11.804;2023-04-28T17:13:45;94030.25;;;12.17;100.00
21828;BME280;11076;47.942;11.804;2023-04-28T17:18:48;94020.16;;;12.07;100.00
21828;BME280;11076;47.942;11.804;2023-04-28T17:23:50;94007.94;;;11.99;100.00
21828;BME280;11076;47.942;11.804;2023-04-28T17:28:53;93998.50;;;11.97;100.00
21828;BME280;11076;47.942;11.804;2023-04-28T17:33:59;93993.84;;;12.04;100.00
21828;BME280;11076;47.942;11.804;2023-04-28T17:39:02;94017.59;;;12.12;100.00
21828;BME280;11076;47.942;11.804;2023-04-28T17:44:05;94037.25;;;12.18;100.00
21828;BME280;11076;47.942;11.804;2023-04-28T17:49:08;94050.28;;;12.26;100.00
21828;BME280;11076;47.942;11.804;2023-04-28T17:54:10;94054.00;;;12.25;100.00
21828;BME280;11076;47.942;11.804;2023-04-28T17:59:13;94060.31;;;12.19;100.00
21828;BME280;11076;47.942;11.804;2023-04-28T18:04:17;94059.16;;;12.14;100.00
21828;BME280;11076;47.942;11.804;2023-04-28T18:09:19;94055.09;;;12.12;100.00
21828;BME280;11076;47.942;11.804;2023-04-28T18:14:22;94052.16;;;12.13;100.00
21828;BME280;11076;47.942;11.804;2023-04-28T18:19:26;94053.09;;;12.07;100.00
21828;BME280;11076;47.942;11.804;2023-04-28T18:24:29;94047.28;;;12.10;100.00
21828;BME280;11076;47.942;11.804;2023-04-28T18:29:32;94066.50;;;12.07;100.00
21828;BME280;11076;47.942;11.804;2023-04-28T18:34:34;94053.69;;;11.98;100.00
21828;BME280;11076;47.942;11.804;2023-04-28T18:39:37;94039.88;;;11.89;100.00
21828;BME280;11076;47.942;11.804;2023-04-28T18:44:39;94064.19;;;11.75;100.00
21828;BME280;11076;47.942;11.804;2023-04-28T18:49:44;94079.34;;;11.58;100.00
21828;BME280;11076;47.942;11.804;2023-04-28T18:54:47;94080.50;;;11.50;100.00
21828;BME280;11076;47.942;11.804;2023-04-28T18:59:49;94091.44;;;11.49;100.00
21828;BME280;11076;47.942;11.804;2023-04-28T19:04:52;94114.81;;;11.42;100.00
21828;BME280;11076;47.942;11.804;2023-04-28T19:09:54;94126.91;;;11.32;100.00
21828;BME280;11076;47.942;11.804;2023-04-28T19:14:56;94135.28;;;11.24;100.00
21828;BME280;11076;47.942;11.804;2023-04-28T19:19:59;94159.56;;;11.23;100.00
21828;BME280;11076;47.942;11.804;2023-04-28T19:25:02;94186.78;;;11.20;100.00
21828;BME280;11076;47.942;11.804;2023-04-28T19:30:07;94190.13;;;11.15;100.00
21828;BME280;11076;47.942;11.804;2023-04-28T19:35:10;94197.72;;;11.18;100.00
21828;BME280;11076;47.942;11.804;2023-04-28T19:40:12;94194.56;;;11.21;100.00
21828;BME280;11076;47.942;11.804;2023-04-28T19:45:15;94215.97;;;11.21;100.00
21828;BME280;11076;47.942;11.804;2023-04-28T19:50:18;94220.53;;;11.21;100.00
21828;BME280;11076;47.942;11.804;2023-04-28T19:55:22;94235.63;;;11.15;100.00
21828;BME280;11076;47.942;11.804;2023-04-28T20:00:25;94248.72;;;11.05;100.00
21828;BME280;11076;47.942;11.804;2023-04-28T20:05:27;94251.84;;;11.02;100.00
21828;BME280;11076;47.942;11.804;2023-04-28T20:10:30;94248.34;;;11.01;100.00
21828;BME280;11076;47.942;11.804;2023-04-28T20:15:32;94234.81;;;10.96;100.00
21828;BME280;11076;47.942;11.804;2023-04-28T20:20:35;94239.63;;;11.06;100.00
21828;BME280;11076;47.942;11.804;2023-04-28T20:25:37;94224.06;;;11.03;100.00
21828;BME280;11076;47.942;11.804;2023-04-28T20:30:40;94223.31;;;10.95;100.00
21828;BME280;11076;47.942;11.804;2023-04-28T20:35:45;94225.59;;;10.92;100.00
21828;BME280;11076;47.942;11.804;2023-04-28T20:40:48;94234.09;;;10.89;100.00
21828;BME280;11076;47.942;11.804;2023-04-28T20:45:50;94219.31;;;10.86;100.00
21828;BME280;11076;47.942;11.804;2023-04-28T20:50:53;94215.69;;;10.81;100.00
21828;BME280;11076;47.942;11.804;2023-04-28T20:55:56;94219.75;;;10.83;100.00
21828;BME280;11076;47.942;11.804;2023-04-28T21:00:58;94219.91;;;10.88;100.00
21828;BME280;11076;47.942;11.804;2023-04-28T21:06:01;94215.16;;;10.90;100.00
21828;BME280;11076;47.942;11.804;2023-04-28T21:11:10;94205.13;;;10.86;100.00
21828;BME280;11076;47.942;11.804;2023-04-28T21:16:16;94221.75;;;10.88;100.00
21828;BME280;11076;47.942;11.804;2023-04-28T21:21:20;94210.25;;;10.87;100.00
21828;BME280;11076;47.942;11.804;2023-04-28T21:26:23;94188.47;;;10.84;100.00
21828;BME280;11076;47.942;11.804;2023-04-28T21:31:25;94191.84;;;10.79;100.00
21828;BME280;11076;47.942;11.804;2023-04-28T21:36:27;94194.72;;;10.78;100.00
21828;BME280;11076;47.942;11.804;2023-04-28T21:41:31;94195.91;;;10.82;100.00
21828;BME280;11076;47.942;11.804;2023-04-28T21:46:35;94179.97;;;10.75;100.00
21828;BME280;11076;47.942;11.804;2023-04-28T21:51:37;94182.94;;;10.67;100.00
21828;BME280;11076;47.942;11.804;2023-04-28T21:56:43;94172.78;;;10.57;100.00
21828;BME280;11076;47.942;11.804;2023-04-28T22:01:45;94176.72;;;10.54;100.00
21828;BME280;11076;47.942;11.804;2023-04-28T22:06:48;94173.00;;;10.55;100.00
21828;BME280;11076;47.942;11.804;2023-04-28T22:11:50;94168.38;;;10.44;100.00
21828;BME280;11076;47.942;11.804;2023-04-28T22:16:53;94166.91;;;10.30;100.00
21828;BME280;11076;47.942;11.804;2023-04-28T22:21:55;94170.38;;;10.30;100.00
21828;BME280;11076;47.942;11.804;2023-04-28T22:26:58;94171.50;;;10.23;100.00
21828;BME280;11076;47.942;11.804;2023-04-28T22:32:01;94157.50;;;10.02;100.00
21828;BME280;11076;47.942;11.804;2023-04-28T22:37:06;94144.13;;;9.84;100.00
21828;BME280;11076;47.942;11.804;2023-04-28T22:42:08;94137.81;;;9.78;100.00
21828;BME280;11076;47.942;11.804;2023-04-28T22:47:11;94139.47;;;9.79;100.00
21828;BME280;11076;47.942;11.804;2023-04-28T22:52:13;94123.47;;;9.72;100.00
21828;BME280;11076;47.942;11.804;2023-04-28T22:57:15;94109.69;;;9.57;100.00
21828;BME280;11076;47.942;11.804;2023-04-28T23:02:18;94111.41;;;9.45;100.00
21828;BME280;11076;47.942;11.804;2023-04-28T23:07:20;94118.47;;;9.39;100.00
21828;BME280;11076;47.942;11.804;2023-04-28T23:12:22;94118.88;;;9.36;100.00
21828;BME280;11076;47.942;11.804;2023-04-28T23:17:25;94110.94;;;9.29;100.00
21828;BME280;11076;47.942;11.804;2023-04-28T23:22:27;94100.31;;;9.23;100.00
21828;BME280;11076;47.942;11.804;2023-04-28T23:27:29;94089.53;;;9.11;100.00
21828;BME280;11076;47.942;11.804;2023-04-28T23:32:32;94091.00;;;9.07;100.00
21828;BME280;11076;47.942;11.804;2023-04-28T23:37:34;94100.44;;;9.09;100.00
21828;BME280;11076;47.942;11.804;2023-04-28T23:42:37;94091.66;;;9.02;100.00
21828;BME280;11076;47.942;11.804;2023-04-28T23:47:39;94089.63;;;8.98;100.00
21828;BME280;11076;47.942;11.804;2023-04-28T23:52:42;94084.31;;;8.98;100.00
21828;BME280;11076;47.942;11.804;2023-04-28T23:57:45;94082.88;;;8.95;100.00
